Nearby METAR Reports

 

EGQL - Leuchars Raf, United Kingdom
Distance from station: SW 17km
Updated: 17/09/2021 19:50
Mostly cloudy
Mostly cloudy
 Wind from SSW
Wind: SSW 8 mph , 13 km/h
Temperature: 18°C
Dew Point: 13°C
Humidity: 73%
Barometer: 1009 hPa
Clouds: Mostly cloudy
Visibility: 6 miles , 10 km
Cloud details: Partly cloudy 1189 m
Mostly cloudy 1524 m
Mostly cloudy 2743 m
2021/09/17 17:50 EGQL 171750Z 20007KT 9999 SCT039 BKN050 BKN090 18/13 Q1009 BLU
EGPN - Dundee/Riverside, United Kingdom
Distance from station: WSW 20km
Updated: 17/09/2021 19:50
Partly cloudy
Partly cloudy
 Wind from S
Wind: S 6 mph , 9 km/h
Temperature: 18°C
Dew Point: 14°C
Humidity: 78%
Barometer: 1009 hPa
Clouds: Partly cloudy
Visibility: 6 miles , 10 km
Cloud details: Partly cloudy 762 m
2021/09/17 17:50 EGPN 171750Z 19005KT 160V270 9999 SCT025 18/14 Q1009
 
EGPH - Edinburgh Airpor, United Kingdom
Distance from station: SSW 74km
Updated: 17/09/2021 19:50
Mostly cloudy
Mostly cloudy
 Wind from S
Wind: S 10 mph , 17 km/h
Temperature: 17°C
Dew Point: 13°C
Humidity: 77%
Barometer: 1009 hPa
Clouds: Mostly cloudy
Visibility: 6 miles , 10 km
Cloud details: Partly cloudy 640 m
Mostly cloudy 1097 m
2021/09/17 17:50 EGPH 171750Z 19009KT 9999 SCT021 BKN036 17/13 Q1009
EGPD - Aberdeen/Dyce, United Kingdom
Distance from station: NNE 82km
Updated: 17/09/2021 19:50
Mostly cloudy
Mostly cloudy
 Wind from SSE
Wind: SSE 10 mph , 17 km/h
Temperature: 15°C
Dew Point: 14°C
Humidity: 94%
Barometer: 1009 hPa
Clouds: Mostly cloudy
Visibility: 6 miles , 10 km
Cloud details: Few Clouds 945 m
Mostly cloudy 1158 m
2021/09/17 17:50 EGPD 171750Z AUTO 16009KT 9999 FEW031 BKN038 15/14 Q1009 NOSIG